createdAt,value
2023-04-10T00:46:41.415Z,3.53
2023-04-10T00:49:26.581Z,3.40
2023-04-10T00:52:11.817Z,3.70
2023-04-10T00:54:57.102Z,3.85
2023-04-10T00:57:48.381Z,3.22
2023-04-10T01:48:03.495Z,3.13
2023-04-10T01:50:49.012Z,3.38
2023-04-10T01:53:35.676Z,3.60
2023-04-10T01:56:20.898Z,3.60
2023-04-10T01:59:06.560Z,3.65
2023-04-10T02:47:29.429Z,3.30
2023-04-10T02:50:17.406Z,3.50
2023-04-10T02:53:04.335Z,3.22
2023-04-10T02:55:49.657Z,3.90
2023-04-10T02:58:36.003Z,3.28
2023-04-10T03:46:59.531Z,3.60
2023-04-10T03:49:45.340Z,3.47
2023-04-10T03:52:30.797Z,3.35
2023-04-10T03:55:19.227Z,3.65
2023-04-10T03:58:05.574Z,3.40
2023-04-10T04:48:12.981Z,3.57
2023-04-10T04:51:18.338Z,3.50
2023-04-10T04:54:08.655Z,3.60
2023-04-10T04:56:59.414Z,3.30
2023-04-10T05:00:03.550Z,3.47
2023-04-10T05:03:07.823Z,3.53
2023-04-10T05:06:12.182Z,3.40
2023-04-10T05:09:16.109Z,3.67
2023-04-10T05:12:20.312Z,3.90
2023-04-10T05:15:31.990Z,3.70
2023-04-10T05:18:27.798Z,3.60
2023-04-10T05:21:13.081Z,3.25
2023-04-10T05:24:16.850Z,3.53
2023-04-10T05:27:27.496Z,3.65
2023-04-10T05:30:12.425Z,3.40
2023-04-10T05:33:23.869Z,3.63
2023-04-10T05:36:26.697Z,3.70
2023-04-10T05:39:30.800Z,3.72
2023-04-10T05:42:29.797Z,3.20
2023-04-10T05:45:38.007Z,3.50
2023-04-10T05:48:37.693Z,3.10
2023-04-10T05:51:42.247Z,3.50
2023-04-10T05:54:51.815Z,3.50
2023-04-10T05:57:52.127Z,3.20
2023-04-10T06:00:57.596Z,3.47
2023-04-10T06:03:56.358Z,3.90
2023-04-10T06:06:42.085Z,3.75
2023-04-10T06:09:28.447Z,3.70
2023-04-10T06:12:13.529Z,3.90
2023-04-10T06:14:59.280Z,3.33
2023-04-10T06:17:53.854Z,3.80
2023-04-10T06:20:39.296Z,3.72
2023-04-10T06:23:24.760Z,3.33
2023-04-10T06:26:09.625Z,3.67
2023-04-10T06:28:55.385Z,3.67
2023-04-10T06:31:40.744Z,3.53
2023-04-10T06:34:27.375Z,3.47
2023-04-10T06:37:17.694Z,3.53
2023-04-10T06:40:10.134Z,3.28
2023-04-10T06:42:55.488Z,3.70
2023-04-10T06:45:46.988Z,3.10
2023-04-10T06:48:32.411Z,3.40
2023-04-10T06:51:17.628Z,3.33
2023-04-10T06:54:02.835Z,3.50
2023-04-10T06:56:47.722Z,3.42
2023-04-10T06:59:34.725Z,3.63
2023-04-10T07:02:20.029Z,3.60
2023-04-10T07:05:05.514Z,3.80
2023-04-10T07:07:50.986Z,3.45
2023-04-10T07:10:36.494Z,3.70
2023-04-10T07:13:21.553Z,3.13
2023-04-10T07:16:08.307Z,3.42
2023-04-10T07:18:53.926Z,3.55
2023-04-10T07:21:39.448Z,3.40
2023-04-10T07:24:24.624Z,3.63
2023-04-10T07:27:09.927Z,3.43
2023-04-10T07:29:55.275Z,3.20
2023-04-10T07:32:42.035Z,3.85
2023-04-10T07:35:27.549Z,3.78
2023-04-10T07:38:13.079Z,3.65
2023-04-10T07:40:58.678Z,3.60
2023-04-10T07:43:43.652Z,3.90
2023-04-10T07:46:28.567Z,3.70
2023-04-10T07:49:13.516Z,3.45
2023-04-10T07:51:58.443Z,3.60
2023-04-10T07:54:43.447Z,3.80
2023-04-10T07:57:28.897Z,3.58
2023-04-10T08:00:14.227Z,3.42
2023-04-10T08:03:00.910Z,3.40
2023-04-10T08:05:46.390Z,3.97
2023-04-10T08:08:31.153Z,3.70
2023-04-10T08:11:29.408Z,3.65
2023-04-10T08:14:18.131Z,3.35
2023-04-10T08:17:04.002Z,3.50
2023-04-10T08:19:49.222Z,3.80
2023-04-10T08:22:34.104Z,3.70
2023-04-10T08:25:18.981Z,3.50
2023-04-10T08:28:04.175Z,3.53
2023-04-10T08:30:49.402Z,3.25
2023-04-10T08:33:34.906Z,3.80
2023-04-10T08:36:20.364Z,3.40
2023-04-10T08:39:05.792Z,3.63
2023-04-10T08:41:50.939Z,3.47
2023-04-10T08:44:37.246Z,3.30
2023-04-10T08:47:23.830Z,3.65
2023-04-10T08:50:10.066Z,3.40
2023-04-10T08:52:56.466Z,3.70
2023-04-10T08:55:42.420Z,3.45
2023-04-10T08:58:28.487Z,3.60
2023-04-10T09:01:13.719Z,3.45
2023-04-10T09:03:59.469Z,3.20
2023-04-10T09:06:45.433Z,3.40
2023-04-10T09:09:34.209Z,3.80
2023-04-10T09:12:21.583Z,3.78
2023-04-10T09:15:06.776Z,3.58
2023-04-10T09:17:56.559Z,3.67
2023-04-10T09:20:42.067Z,3.85
2023-04-10T09:23:27.255Z,3.35
2023-04-10T09:26:25.374Z,3.67
2023-04-10T09:29:12.269Z,3.58
2023-04-10T09:31:57.534Z,3.30
2023-04-10T09:34:53.411Z,3.70
2023-04-10T09:37:38.810Z,3.50
2023-04-10T09:40:25.096Z,3.70
2023-04-10T09:43:36.865Z,3.30
2023-04-10T09:46:28.848Z,3.33
2023-04-10T09:49:14.356Z,3.58
2023-04-10T09:51:59.631Z,3.40
2023-04-10T09:54:44.464Z,3.65
2023-04-10T09:57:30.150Z,3.78
2023-04-10T10:00:15.473Z,3.67
2023-04-10T10:03:02.637Z,3.97
2023-04-10T10:05:48.615Z,3.63
2023-04-10T10:08:34.844Z,3.50
2023-04-10T10:11:23.129Z,3.40
2023-04-10T10:14:12.948Z,3.30
2023-04-10T10:17:01.778Z,3.63
2023-04-10T10:20:04.192Z,3.50
2023-04-10T10:22:50.291Z,3.30
2023-04-10T10:25:35.768Z,3.55
2023-04-10T10:28:21.012Z,3.47
2023-04-10T10:31:06.703Z,3.40
2023-04-10T10:33:52.589Z,3.40
2023-04-10T10:36:39.084Z,3.58
2023-04-10T10:39:36.443Z,3.28
2023-04-10T10:42:21.305Z,3.27
2023-04-10T10:45:06.062Z,3.40
2023-04-10T10:47:51.542Z,3.17
2023-04-10T10:50:57.029Z,3.30
2023-04-10T10:53:45.272Z,3.13
2023-04-10T10:56:34.000Z,3.43
2023-04-10T10:59:18.873Z,3.20
2023-04-10T11:02:13.099Z,3.50
2023-04-10T11:04:58.606Z,3.17
2023-04-10T11:07:59.340Z,3.22
2023-04-10T11:11:04.640Z,3.43
2023-04-10T11:13:52.597Z,3.20
2023-04-10T11:16:43.630Z,3.20
2023-04-10T11:19:28.912Z,3.17
2023-04-10T11:22:15.717Z,2.90
2023-04-10T11:25:02.420Z,3.07
2023-04-10T11:27:52.599Z,3.30
2023-04-10T11:30:37.806Z,3.20
2023-04-10T11:33:22.976Z,3.20
2023-04-10T11:36:08.019Z,3.50
2023-04-10T11:38:59.359Z,3.23
2023-04-10T11:41:44.174Z,3.47
2023-04-10T11:44:35.401Z,3.30
2023-04-10T11:47:20.493Z,2.92
2023-04-10T11:50:05.759Z,3.28
2023-04-10T11:52:51.180Z,3.10
2023-04-10T11:55:39.457Z,3.03
2023-04-10T11:58:25.514Z,3.20
2023-04-10T12:01:14.332Z,3.03
2023-04-10T12:03:59.815Z,2.97
2023-04-10T12:06:48.892Z,3.20
2023-04-10T12:09:34.005Z,3.08
2023-04-10T12:12:20.564Z,3.03
2023-04-10T12:15:26.346Z,3.28
2023-04-10T12:18:11.593Z,3.00
2023-04-10T12:20:57.553Z,3.00
2023-04-10T12:23:42.618Z,3.20
2023-04-10T12:26:27.737Z,3.00
2023-04-10T12:29:12.999Z,3.35
2023-04-10T12:31:57.974Z,3.33
2023-04-10T12:34:49.337Z,3.20
2023-04-10T12:37:47.300Z,3.17
2023-04-10T12:40:32.671Z,2.83
2023-04-10T12:43:36.938Z,2.63
2023-04-10T12:46:28.843Z,2.97
2023-04-10T12:49:14.871Z,2.93
2023-04-10T12:51:59.805Z,3.08
2023-04-10T12:54:45.416Z,2.90
2023-04-10T12:57:30.865Z,2.80
2023-04-10T13:00:17.502Z,3.00
2023-04-10T13:03:03.544Z,2.93
2023-04-10T13:05:48.960Z,2.80
2023-04-10T13:08:34.817Z,2.90
2023-04-10T13:11:19.929Z,2.95
2023-04-10T13:14:04.931Z,2.70
2023-04-10T13:16:49.719Z,2.87
2023-04-10T13:19:35.279Z,3.20
2023-04-10T13:22:20.899Z,2.90
2023-04-10T13:25:06.160Z,2.92
2023-04-10T13:27:51.192Z,2.90
2023-04-10T13:30:36.272Z,2.97
2023-04-10T13:33:22.145Z,2.95
2023-04-10T13:36:07.379Z,2.60
2023-04-10T13:38:52.739Z,2.83
2023-04-10T13:41:38.258Z,2.90
2023-04-10T13:44:23.785Z,2.80
2023-04-10T13:47:08.540Z,2.75
2023-04-10T13:49:53.859Z,2.88
2023-04-10T13:52:39.392Z,3.20
2023-04-10T13:55:25.089Z,2.75
2023-04-10T13:58:13.228Z,2.70
2023-04-10T14:00:58.410Z,2.80
2023-04-10T14:03:43.620Z,2.78
2023-04-10T14:06:28.976Z,2.58
2023-04-10T14:09:13.790Z,3.03
2023-04-10T14:11:58.751Z,2.63
2023-04-10T14:14:44.333Z,2.50
2023-04-10T14:17:29.587Z,2.80
2023-04-10T14:20:14.560Z,2.70
2023-04-10T14:22:59.960Z,2.70
2023-04-10T14:25:45.683Z,2.50
2023-04-10T14:28:31.467Z,2.90
2023-04-10T14:31:16.649Z,2.88
2023-04-10T14:34:01.970Z,2.92
2023-04-10T14:36:47.533Z,2.70
2023-04-10T14:39:33.746Z,2.77
2023-04-10T14:42:18.616Z,2.78
2023-04-10T14:45:05.538Z,2.60
2023-04-10T14:47:51.014Z,2.78
2023-04-10T14:50:36.384Z,2.80
2023-04-10T14:53:22.968Z,2.50
2023-04-10T14:56:15.043Z,2.75
2023-04-10T14:58:59.881Z,2.55
2023-04-10T15:01:45.067Z,2.80
2023-04-10T15:04:30.314Z,2.90
2023-04-10T15:07:15.426Z,2.80
2023-04-10T15:10:00.419Z,2.58
2023-04-10T15:12:45.733Z,2.50
2023-04-10T15:15:30.550Z,2.50
2023-04-10T15:18:15.946Z,2.78
2023-04-10T15:21:00.776Z,2.60
2023-04-10T15:23:45.775Z,2.60
2023-04-10T15:26:30.566Z,2.50
2023-04-10T15:29:16.005Z,2.95
2023-04-10T15:32:00.820Z,2.60
2023-04-10T15:34:49.174Z,2.67
2023-04-10T15:37:37.309Z,2.63
2023-04-10T15:40:22.536Z,2.78
2023-04-10T15:43:07.854Z,2.60
2023-04-10T15:45:52.848Z,2.60
2023-04-10T15:48:38.339Z,2.67
2023-04-10T15:51:23.315Z,2.58
2023-04-10T15:54:09.031Z,2.50
2023-04-10T15:56:54.130Z,2.40
2023-04-10T15:59:39.201Z,2.58
2023-04-10T16:02:24.294Z,2.43
2023-04-10T16:05:09.814Z,2.30
2023-04-10T16:07:55.542Z,2.40
2023-04-10T16:10:40.928Z,2.50
2023-04-10T16:13:25.955Z,2.35
2023-04-10T16:16:15.448Z,2.50
2023-04-10T16:19:01.804Z,2.58
2023-04-10T16:21:47.111Z,2.35
2023-04-10T16:24:32.588Z,2.40
2023-04-10T16:27:18.036Z,2.20
2023-04-10T16:30:03.249Z,2.43
2023-04-10T16:32:48.514Z,2.38
2023-04-10T16:35:34.176Z,2.35
2023-04-10T16:38:19.293Z,2.30
2023-04-10T16:41:04.513Z,2.33
2023-04-10T16:43:49.918Z,2.50
2023-04-10T16:46:34.949Z,2.30
2023-04-10T16:49:22.354Z,2.30
2023-04-10T16:52:07.480Z,2.40
2023-04-10T16:54:52.398Z,2.45
2023-04-10T16:57:37.165Z,2.50
2023-04-10T17:00:22.560Z,2.53
2023-04-10T17:03:07.479Z,2.47
2023-04-10T17:05:52.821Z,2.40
2023-04-10T17:08:38.044Z,2.38
2023-04-10T17:11:23.137Z,2.43
2023-04-10T17:14:09.056Z,2.63
2023-04-10T17:16:53.994Z,2.38
2023-04-10T17:19:39.525Z,2.40
2023-04-10T17:22:25.321Z,2.45
2023-04-10T17:25:11.032Z,2.27
2023-04-10T17:27:56.860Z,2.22
2023-04-10T17:30:44.922Z,1.98
2023-04-10T17:33:29.752Z,2.22
2023-04-10T17:36:14.964Z,2.50
2023-04-10T17:39:00.840Z,2.17
2023-04-10T17:41:46.291Z,2.08
2023-04-10T17:44:31.421Z,2.30
2023-04-10T17:47:17.320Z,2.38
2023-04-10T17:50:06.177Z,2.20
2023-04-10T17:52:51.092Z,2.20
2023-04-10T17:55:39.475Z,2.15
2023-04-10T17:58:24.876Z,2.03
2023-04-10T18:01:11.156Z,2.50
2023-04-10T18:04:00.139Z,2.30
2023-04-10T18:06:45.767Z,2.37
2023-04-10T18:09:30.727Z,1.95
2023-04-10T18:12:15.622Z,2.20
2023-04-10T18:15:00.505Z,2.30
2023-04-10T18:17:45.793Z,2.70
2023-04-10T18:20:31.162Z,2.50
2023-04-10T18:23:16.135Z,2.47
2023-04-10T18:26:01.602Z,2.35
2023-04-10T18:28:47.131Z,2.10
2023-04-10T18:31:32.432Z,2.20
2023-04-10T18:34:17.862Z,2.40
2023-04-10T18:37:02.673Z,2.10
2023-04-10T18:39:47.505Z,2.20
2023-04-10T18:42:32.328Z,1.92
2023-04-10T18:45:17.269Z,2.30
2023-04-10T18:48:03.177Z,2.40
2023-04-10T18:50:50.792Z,2.50
2023-04-10T18:53:36.116Z,2.00
2023-04-10T18:56:21.174Z,1.95
2023-04-10T18:59:06.530Z,2.15
2023-04-10T19:01:51.465Z,2.33
2023-04-10T19:04:37.021Z,2.15
2023-04-10T19:07:22.186Z,2.20
2023-04-10T19:10:07.605Z,2.08
2023-04-10T19:12:54.602Z,2.00
2023-04-10T19:15:43.660Z,2.27
2023-04-10T19:18:28.751Z,2.30
2023-04-10T19:21:14.139Z,2.30
2023-04-10T19:23:59.831Z,2.10
2023-04-10T19:26:44.755Z,2.30
2023-04-10T19:29:30.996Z,2.23
2023-04-10T19:32:16.060Z,2.05
2023-04-10T19:35:01.380Z,2.30
2023-04-10T19:37:46.243Z,2.15
2023-04-10T19:40:32.111Z,2.33
2023-04-10T19:43:17.671Z,2.00
2023-04-10T19:46:02.925Z,2.30
2023-04-10T19:48:48.476Z,2.10
2023-04-10T19:51:33.580Z,2.45
2023-04-10T19:54:19.101Z,2.20
2023-04-10T19:57:04.351Z,2.10
2023-04-10T19:59:49.190Z,2.30
2023-04-10T20:02:37.129Z,2.40
2023-04-10T20:05:22.489Z,2.20
2023-04-10T20:08:07.740Z,2.13
2023-04-10T20:10:52.800Z,2.20
2023-04-10T20:13:39.123Z,2.40
2023-04-10T20:16:26.096Z,2.53
2023-04-10T20:19:11.959Z,2.30
2023-04-10T20:21:57.171Z,2.10
2023-04-10T20:24:42.158Z,2.37
2023-04-10T20:27:26.971Z,2.30
2023-04-10T20:30:11.762Z,2.03
2023-04-10T20:32:57.281Z,2.15
2023-04-10T20:35:42.296Z,1.83
2023-04-10T20:38:27.681Z,2.13
2023-04-10T20:41:12.627Z,2.40
2023-04-10T20:43:58.359Z,2.17
2023-04-10T20:46:44.773Z,2.40
2023-04-10T20:49:29.848Z,2.20
2023-04-10T20:52:14.828Z,2.13
2023-04-10T20:54:59.728Z,2.22
2023-04-10T20:57:44.613Z,2.05
2023-04-10T21:00:30.922Z,2.42
2023-04-10T21:03:16.117Z,2.13
2023-04-10T21:06:04.694Z,2.10
2023-04-10T21:08:49.856Z,2.10
2023-04-10T21:11:34.724Z,2.22
2023-04-10T21:14:20.367Z,2.20
2023-04-10T21:17:05.632Z,2.20
2023-04-10T21:19:50.423Z,2.40
2023-04-10T21:22:35.967Z,2.10
2023-04-10T21:25:21.296Z,2.10
2023-04-10T21:28:06.218Z,2.20
2023-04-10T21:30:51.421Z,2.20
2023-04-10T21:33:36.301Z,2.30
2023-04-10T21:36:21.150Z,2.20
2023-04-10T21:39:09.222Z,2.08
2023-04-10T21:41:54.419Z,2.20
2023-04-10T21:44:39.067Z,2.20
2023-04-10T21:47:23.892Z,2.27
2023-04-10T21:50:08.973Z,1.85
2023-04-10T21:52:54.478Z,2.10
2023-04-10T21:55:39.666Z,2.15
2023-04-10T21:58:24.977Z,2.17
2023-04-10T22:01:11.605Z,2.07
2023-04-10T22:03:57.664Z,2.00
2023-04-10T22:06:42.958Z,2.08
2023-04-10T22:09:27.820Z,2.10
2023-04-10T22:12:12.707Z,2.17
2023-04-10T22:14:57.749Z,2.20
2023-04-10T22:17:43.263Z,2.50
2023-04-10T22:20:28.339Z,1.98
2023-04-10T22:23:13.126Z,2.10
2023-04-10T22:26:01.553Z,2.10
2023-04-10T22:28:47.024Z,2.10
2023-04-10T22:31:31.833Z,1.92
2023-04-10T22:34:16.659Z,2.25
2023-04-10T22:37:02.381Z,2.10
2023-04-10T22:39:47.340Z,2.25
2023-04-10T22:42:32.205Z,2.00
2023-04-10T22:45:17.374Z,2.10
2023-04-10T22:48:02.264Z,2.20
2023-04-10T22:50:47.619Z,2.30
2023-04-10T22:53:32.543Z,2.30
2023-04-10T22:56:19.233Z,2.20
2023-04-10T22:59:04.385Z,2.00
2023-04-10T23:46:09.258Z,2.00
2023-04-10T23:48:55.340Z,2.10
2023-04-10T23:51:40.444Z,2.05
2023-04-10T23:54:25.451Z,2.20
2023-04-10T23:57:10.257Z,2.13
2023-04-10T23:59:55.255Z,2.05
